Аэропорт: Мирный. Мирный

ICAO: UERR

METAR:
Информация по данной станции не доступна
METAR:
2020-05-31 23:00:00
TAF UERR 312300Z 0100/0124 14003G08MPS 9999 SCT033 BKN100